Terminal Aerodrome Forecast
Issued by NWS

Home | Current Version | Previous Version | Text Only | Print | Product List | Glossary On
Versions: 1 2 3 4 5 6 7 8 9 10 11 12 13 14 15 16 17 18 19 20
000
FTUS42 KMLB 291810 AAA
TAFFPR
TAF AMD
KFPR 291810Z 2918/3018 23007KT P6SM VCTS FEW020CB SCT050 OVC090
      TEMPO 2918/2922 5SM SHRA BKN040
     FM300100 22004KT P6SM VCSH SCT020 BKN080 BKN250
     FM300600 25004KT P6SM SCT002 BKN250
     FM301400 24008KT P6SM SCT020 SCT050 BKN250=

USA.gov is the U.S. government's official web portal to all federal, state and local government web resources and services.